»·PEaware :: N458SP O22-KMHR

N458SP :: O22-KMHR

FLIGHT INFORMATION

Flight Status: Arrived
Operator: Privately registered:
United States
More flights under this callsign
Pilot: Evan J. (56)
Aircraft: BOMBARDIER BD-100 CHALLENGER 300
(CL30)
More flights by this aircraft type
Origin: O22 Columbia
United States
Destination: KMHR Mather
United States
More flights between these airports :: More routes between these airports
Route: DIR
File this flight plan on PilotEdge
Remarks:
Altitude:
(Current/Filed)
8,500ft
Speed:
(Current/Filed)
200kts
Departed: 01-Jul-12 07:23 PM
Arrived: 01-Jul-12 07:47 PM
Distance/Time
Traveled:
52nm/0:24
Distance/Time
To Go:
Arrived

Flight Plot

Page will automatically refresh every two minutes.


Map Options




Map Legend


Flown Route
Filed Route
Departure Airport
Arrival Airport
Navaid (VOR, NDB)
Fix

Horizontal Profiles

Position Reports

Time Latitude Longitude Heading Altitude Ground
Speed
01-Jul-12 18:20 38.555539 -121.310368 323 101ft 0kts
01-Jul-12 18:21 38.555539 -121.310368 323 101ft 0kts
01-Jul-12 18:22 38.555539 -121.310368 323 101ft 0kts
01-Jul-12 18:23 38.555539 -121.310368 323 101ft 0kts
01-Jul-12 18:24 38.555414 -121.310384 141 101ft 0kts
01-Jul-12 18:25 38.555414 -121.310384 141 101ft 0kts
01-Jul-12 18:26 38.555414 -121.310384 141 101ft 0kts
01-Jul-12 18:27 38.554430 -121.307696 120 101ft 11kts
01-Jul-12 18:28 38.558782 -121.299129 54 101ft 25kts
01-Jul-12 18:29 38.561330 -121.293692 68 101ft 15kts
01-Jul-12 18:30 38.564223 -121.287934 58 101ft 23kts
01-Jul-12 18:31 38.565586 -121.283302 150 101ft 14kts
01-Jul-12 18:32 38.564247 -121.282483 174 101ft 0kts
01-Jul-12 18:33 38.564247 -121.282483 174 101ft 0kts
01-Jul-12 18:34 38.564247 -121.282483 174 101ft 0kts
01-Jul-12 18:35 38.564247 -121.282483 174 101ft 0kts
01-Jul-12 18:36 38.564247 -121.282483 174 101ft 0kts
01-Jul-12 18:37 38.564247 -121.282483 174 101ft 0kts
01-Jul-12 18:38 38.564247 -121.282483 174 101ft 0kts
01-Jul-12 18:39 38.564247 -121.282483 174 101ft 0kts
01-Jul-12 18:40 38.564247 -121.282483 174 101ft 0kts
01-Jul-12 18:41 38.564247 -121.282483 174 101ft 0kts
01-Jul-12 18:42 38.564247 -121.282483 174 101ft 0kts
01-Jul-12 18:43 38.564247 -121.282483 174 101ft 0kts
01-Jul-12 18:44 38.564247 -121.282483 174 101ft 0kts
01-Jul-12 18:45 38.564247 -121.282483 174 101ft 0kts
01-Jul-12 18:46 38.564247 -121.282483 174 101ft 0kts
01-Jul-12 18:47 38.564247 -121.282483 174 101ft 0kts
01-Jul-12 18:48 38.564247 -121.282483 174 101ft 0kts
01-Jul-12 18:49 38.564247 -121.282483 174 101ft 0kts
01-Jul-12 18:50 38.564247 -121.282483 174 101ft 0kts
01-Jul-12 18:51 38.564247 -121.282483 174 101ft 0kts
01-Jul-12 18:52 38.564247 -121.282483 174 101ft 0kts
01-Jul-12 18:53 38.564247 -121.282483 174 101ft 0kts
01-Jul-12 18:54 38.564236 -121.282484 180 101ft 0kts
01-Jul-12 18:55 38.565616 -121.283277 328 101ft 17kts
01-Jul-12 18:56 38.566453 -121.283503 240 101ft 4kts
01-Jul-12 18:57 38.566099 -121.282851 113 101ft 12kts
01-Jul-12 18:58 38.565725 -121.282416 145 101ft 0kts
01-Jul-12 18:59 38.565725 -121.282416 145 101ft 0kts
01-Jul-12 19:00 38.565725 -121.282416 145 101ft 0kts
01-Jul-12 19:01 38.565725 -121.282416 145 101ft 0kts
01-Jul-12 19:02 38.565725 -121.282416 145 101ft 0kts
01-Jul-12 19:03 38.565725 -121.282416 145 101ft 0kts
01-Jul-12 19:04 38.565725 -121.282416 145 101ft 0kts
01-Jul-12 19:05 38.565725 -121.282416 145 101ft 0kts
01-Jul-12 19:06 38.565725 -121.282416 145 101ft 0kts
01-Jul-12 19:07 38.565725 -121.282416 145 101ft 0kts
01-Jul-12 19:08 38.565725 -121.282416 145 101ft 0kts
01-Jul-12 19:09 38.565725 -121.282416 145 101ft 0kts
01-Jul-12 19:10 38.565725 -121.282416 145 101ft 0kts
01-Jul-12 19:11 38.565725 -121.282416 145 101ft 0kts
01-Jul-12 19:12 38.565725 -121.282416 145 101ft 0kts
01-Jul-12 19:13 38.565725 -121.282416 145 101ft 0kts
01-Jul-12 19:14 38.565725 -121.282416 145 101ft 0kts
01-Jul-12 19:15 38.565725 -121.282416 145 101ft 0kts
01-Jul-12 19:16 38.565725 -121.282416 145 101ft 0kts
01-Jul-12 19:17 38.565725 -121.282416 145 101ft 0kts
01-Jul-12 19:18 38.565725 -121.282416 145 101ft 0kts
01-Jul-12 19:19 38.565725 -121.282416 145 101ft 0kts
01-Jul-12 19:20 38.563625 -121.282364 170 101ft 7kts
01-Jul-12 19:21 38.555371 -121.295062 233 285ft 163kts
01-Jul-12 19:22 38.523637 -121.315473 155 1717ft 194kts
01-Jul-12 19:23 38.530223 -121.270514 54 2420ft 152kts
01-Jul-12 19:24 38.552897 -121.225976 64 2343ft 154kts
01-Jul-12 19:25 38.576491 -121.230054 317 1977ft 151kts
01-Jul-12 19:26 38.582776 -121.254810 219 1551ft 133kts
01-Jul-12 19:27 38.564137 -121.279820 229 171ft 116kts
01-Jul-12 19:28 38.542012 -121.307193 190 1736ft 172kts
01-Jul-12 19:29 38.516776 -121.269611 60 2167ft 171kts
01-Jul-12 19:30 38.542579 -121.222828 54 2153ft 164kts
01-Jul-12 19:31 38.570778 -121.216876 323 2059ft 158kts
01-Jul-12 19:32 38.586332 -121.240207 248 1715ft 127kts
01-Jul-12 19:33 38.572394 -121.265399 235 611ft 124kts
01-Jul-12 19:34 38.559158 -121.288470 233 102ft 108kts
01-Jul-12 19:35 38.527300 -121.310677 149 1880ft 193kts
01-Jul-12 19:37 38.541355 -121.245460 325 1427ft 135kts
01-Jul-12 19:38 38.557172 -121.258018 326 1115ft 134kts
01-Jul-12 19:40 38.549663 -121.305019 233 674ft 189kts
01-Jul-12 19:41 38.530518 -121.289653 56 2180ft 160kts
01-Jul-12 19:42 38.556439 -121.255866 346 1765ft 138kts
01-Jul-12 19:43 38.567145 -121.275284 221 466ft 118kts
01-Jul-12 19:44 38.556868 -121.292456 234 101ft 44kts
01-Jul-12 19:45 38.555386 -121.297534 324 101ft 7kts
01-Jul-12 19:46 38.557366 -121.299426 319 101ft 24kts
01-Jul-12 19:47 38.560239 -121.297150 357 101ft 12kts
01-Jul-12 19:48 38.560792 -121.297425 269 101ft 0kts

Navigation Log

Ident Type
Flight plan parsing failed, navigation log unavailable